Spirit Of New Jersey — WCX9137 — position and weather

sailwx.info

Track history (hours):
 
Tides and Currents Weather Stations Pressure Air Temp Water Temp Dewpoint Dewpoint Depression Visibility Wind Speed Wind Dir Waves Ship Positions

Spirit Of New Jersey

Owner: SPIRIT CRUISES, NEW YORK, NY. More information available from US FCC via Universal Licensing System and Coast Guard Vessel Documentation Center.

Last reported at 2017-Oct-15 02:49 UTC. Time now 2017-Oct-17 04:02 UTC.
Position N 40°45' W 074°01'.

MMSI: 364919326.

Date/timePositionNaut miles runAvg speedWind from/ knotsBaromVisibWave heightAir tempDewpointWater temp
2017-Oct-15 02:49N 40°45' W 074°01'1 2.5
2017-Oct-15 02:30N 40°46' W 074°01'0 0.0
2017-Oct-15 02:00N 40°46' W 074°01'1 1.9
2017-Oct-15 01:30N 40°45' W 074°01'4 7.2
2017-Oct-15 01:00N 40°41' W 074°02'2 3.8
2017-Oct-15 00:30N 40°42' W 074°00'1 1.4
2017-Oct-15 00:00N 40°42' W 073°59'2 4.1
2017-Oct-14 23:30N 40°44' W 074°01'1 3.0
2017-Oct-14 23:00N 40°46' W 074°01'0 0.0
2017-Oct-14 22:30N 40°46' W 074°01'0 0.0
2017-Oct-14 22:00N 40°46' W 074°01'1 1.5
2017-Oct-14 21:30N 40°45' W 074°01'0 0.0
2017-Oct-14 19:46N 40°45' W 074°01'1 2.8
2017-Oct-14 19:30N 40°46' W 074°01'2 2.1
2017-Oct-14 18:30N 40°47' W 073°60'4 7.6
2017-Oct-14 18:00N 40°51' W 073°57'1 2.3
2017-Oct-14 17:30N 40°52' W 073°57'4 7.0
2017-Oct-14 17:00N 40°48' W 073°59'3 6.3
2017-Oct-14 16:30N 40°46' W 074°01'0 0.9
2017-Oct-14 16:00N 40°46' W 074°01'0 0.0
2017-Oct-14 15:30N 40°46' W 074°01'0 0.0
2017-Oct-14 15:00N 40°46' W 074°01'1 1.6
2017-Oct-14 14:30N 40°45' W 074°01'0 0.0
2017-Oct-13 01:21N 40°45' W 074°01'1 2.2
2017-Oct-13 01:00N 40°46' W 074°01'0 0.0
2017-Oct-13 00:30N 40°46' W 074°01'2 3.6
2017-Oct-13 00:00N 40°44' W 074°01'3 5.3
2017-Oct-12 23:30N 40°41' W 074°03'3 5.2
2017-Oct-12 23:00N 40°44' W 074°01'2 3.7
2017-Oct-12 22:30N 40°46' W 074°01'0 0.0
2017-Oct-12 21:59N 40°46' W 074°01'0 0.0
2017-Oct-12 21:30N 40°46' W 074°01'4 0.1
2017-Oct-11 00:00N 40°42' W 074°00'3 6.3
2017-Oct-10 23:30N 40°45' W 074°01'1 1.1
2017-Oct-10 23:00N 40°46' W 074°01'0 0.0
2017-Oct-10 22:30N 40°46' W 074°01'0 0.0
2017-Oct-10 22:00N 40°46' W 074°01'1 0.0
2017-Oct-09 02:10N 40°45' W 074°01'0 1.7
2017-Oct-09 02:00N 40°45' W 074°01'1 1.1
2017-Oct-09 01:30N 40°46' W 074°01'2 3.9
2017-Oct-09 01:00N 40°44' W 074°01'2 4.8
2017-Oct-09 00:30N 40°41' W 074°02'2 4.4
2017-Oct-09 00:00N 40°42' W 073°60'3 5.1
2017-Oct-08 23:30N 40°45' W 074°01'1 2.0
2017-Oct-08 23:00N 40°46' W 074°01'0 0.0
2017-Oct-08 22:30N 40°46' W 074°01'0 0.0
2017-Oct-08 22:00N 40°46' W 074°01'1 1.6
2017-Oct-08 21:30N 40°45' W 074°01'0 0.0
2017-Oct-08 21:00N 40°45' W 074°01'0 0.0
2017-Oct-08 20:30N 40°45' W 074°01'0 0.0
2017-Oct-08 20:00N 40°45' W 074°01'0 0.0
2017-Oct-08 18:51N 40°45' W 074°01'1 2.2
2017-Oct-08 18:30N 40°46' W 074°01'0 0.0
2017-Oct-08 18:00N 40°46' W 074°01'1 1.5
2017-Oct-08 17:30N 40°45' W 074°01'4 7.5
2017-Oct-08 17:00N 40°41' W 074°03'2 3.4
2017-Oct-08 16:30N 40°43' W 074°01'3 5.8
2017-Oct-08 16:00N 40°46' W 074°01'0 0.0
2017-Oct-08 15:30N 40°46' W 074°01'0 0.0
2017-Oct-08 15:00N 40°46' W 074°01'1 0.1
2017-Oct-08 02:56N 40°45' W 074°01'1 1.8
2017-Oct-08 02:30N 40°46' W 074°01'0 0.0
2017-Oct-08 02:01N 40°46' W 074°01'1 1.2
2017-Oct-08 01:30N 40°45' W 074°01'4 7.6
2017-Oct-08 01:00N 40°41' W 074°02'2 4.3
2017-Oct-08 00:30N 40°42' W 073°60'1 2.7
2017-Oct-08 00:00N 40°43' W 074°01'3 6.1
2017-Oct-07 23:31N 40°46' W 074°01'0 0.9
2017-Oct-07 23:00N 40°46' W 074°01'0 0.0
2017-Oct-07 22:30N 40°46' W 074°01'0 0.0
2017-Oct-07 22:00N 40°46' W 074°01'1 1.5
2017-Oct-07 21:30N 40°45' W 074°01'0 0.0
2017-Oct-06 01:52N 40°45' W 074°01'1 2.2
2017-Oct-06 01:30N 40°44' W 074°01'3 6.0
2017-Oct-06 01:00N 40°41' W 074°02'3 5.1
2017-Oct-06 00:30N 40°42' W 073°60'1 2.7
2017-Oct-06 00:00N 40°43' W 074°01'3 6.4
2017-Oct-05 23:30N 40°46' W 074°00'1 1.9
2017-Oct-05 23:00N 40°45' W 074°01'0 0.0
2017-Oct-05 22:30N 40°45' W 074°01'0 0.0
2017-Oct-05 22:00N 40°45' W 074°01'  
Track history (hours):
 
Tides and Currents Weather Stations Pressure Air Temp Water Temp Dewpoint Dewpoint Depression Visibility Wind Speed Wind Dir Waves Ship Positions

Spirit Of New Jersey

Owner: SPIRIT CRUISES, NEW YORK, NY. More information available from US FCC via Universal Licensing System and Coast Guard Vessel Documentation Center.

Last reported at 2017-Oct-15 02:49 UTC. Time now 2017-Oct-17 04:02 UTC.
Position N 40°45' W 074°01'.

MMSI: 364919326.

Date/timePositionNaut miles runAvg speedWind from/ knotsBaromVisibWave heightAir tempDewpointWater temp
2017-Oct-15 02:49N 40°45' W 074°01'1 2.5
2017-Oct-15 02:30N 40°46' W 074°01'0 0.0
2017-Oct-15 02:00N 40°46' W 074°01'1 1.9
2017-Oct-15 01:30N 40°45' W 074°01'4 7.2
2017-Oct-15 01:00N 40°41' W 074°02'2 3.8
2017-Oct-15 00:30N 40°42' W 074°00'1 1.4
2017-Oct-15 00:00N 40°42' W 073°59'2 4.1
2017-Oct-14 23:30N 40°44' W 074°01'1 3.0
2017-Oct-14 23:00N 40°46' W 074°01'0 0.0
2017-Oct-14 22:30N 40°46' W 074°01'0 0.0
2017-Oct-14 22:00N 40°46' W 074°01'1 1.5
2017-Oct-14 21:30N 40°45' W 074°01'0 0.0
2017-Oct-14 19:46N 40°45' W 074°01'1 2.8
2017-Oct-14 19:30N 40°46' W 074°01'2 2.1
2017-Oct-14 18:30N 40°47' W 073°60'4 7.6
2017-Oct-14 18:00N 40°51' W 073°57'1 2.3
2017-Oct-14 17:30N 40°52' W 073°57'4 7.0
2017-Oct-14 17:00N 40°48' W 073°59'3 6.3
2017-Oct-14 16:30N 40°46' W 074°01'0 0.9
2017-Oct-14 16:00N 40°46' W 074°01'0 0.0
2017-Oct-14 15:30N 40°46' W 074°01'0 0.0
2017-Oct-14 15:00N 40°46' W 074°01'1 1.6
2017-Oct-14 14:30N 40°45' W 074°01'0 0.0
2017-Oct-13 01:21N 40°45' W 074°01'1 2.2
2017-Oct-13 01:00N 40°46' W 074°01'0 0.0
2017-Oct-13 00:30N 40°46' W 074°01'2 3.6
2017-Oct-13 00:00N 40°44' W 074°01'3 5.3
2017-Oct-12 23:30N 40°41' W 074°03'3 5.2
2017-Oct-12 23:00N 40°44' W 074°01'2 3.7
2017-Oct-12 22:30N 40°46' W 074°01'0 0.0
2017-Oct-12 21:59N 40°46' W 074°01'0 0.0
2017-Oct-12 21:30N 40°46' W 074°01'4 0.1
2017-Oct-11 00:00N 40°42' W 074°00'3 6.3
2017-Oct-10 23:30N 40°45' W 074°01'1 1.1
2017-Oct-10 23:00N 40°46' W 074°01'0 0.0
2017-Oct-10 22:30N 40°46' W 074°01'0 0.0
2017-Oct-10 22:00N 40°46' W 074°01'1 0.0
2017-Oct-09 02:10N 40°45' W 074°01'0 1.7
2017-Oct-09 02:00N 40°45' W 074°01'1 1.1
2017-Oct-09 01:30N 40°46' W 074°01'2 3.9
2017-Oct-09 01:00N 40°44' W 074°01'2 4.8
2017-Oct-09 00:30N 40°41' W 074°02'2 4.4
2017-Oct-09 00:00N 40°42' W 073°60'3 5.1
2017-Oct-08 23:30N 40°45' W 074°01'1 2.0
2017-Oct-08 23:00N 40°46' W 074°01'0 0.0
2017-Oct-08 22:30N 40°46' W 074°01'0 0.0
2017-Oct-08 22:00N 40°46' W 074°01'1 1.6
2017-Oct-08 21:30N 40°45' W 074°01'0 0.0
2017-Oct-08 21:00N 40°45' W 074°01'0 0.0
2017-Oct-08 20:30N 40°45' W 074°01'0 0.0
2017-Oct-08 20:00N 40°45' W 074°01'0 0.0
2017-Oct-08 18:51N 40°45' W 074°01'1 2.2
2017-Oct-08 18:30N 40°46' W 074°01'0 0.0
2017-Oct-08 18:00N 40°46' W 074°01'1 1.5
2017-Oct-08 17:30N 40°45' W 074°01'4 7.5
2017-Oct-08 17:00N 40°41' W 074°03'2 3.4
2017-Oct-08 16:30N 40°43' W 074°01'3 5.8
2017-Oct-08 16:00N 40°46' W 074°01'0 0.0
2017-Oct-08 15:30N 40°46' W 074°01'0 0.0
2017-Oct-08 15:00N 40°46' W 074°01'1 0.1
2017-Oct-08 02:56N 40°45' W 074°01'1 1.8
2017-Oct-08 02:30N 40°46' W 074°01'0 0.0
2017-Oct-08 02:01N 40°46' W 074°01'1 1.2
2017-Oct-08 01:30N 40°45' W 074°01'4 7.6
2017-Oct-08 01:00N 40°41' W 074°02'2 4.3
2017-Oct-08 00:30N 40°42' W 073°60'1 2.7
2017-Oct-08 00:00N 40°43' W 074°01'3 6.1
2017-Oct-07 23:31N 40°46' W 074°01'0 0.9
2017-Oct-07 23:00N 40°46' W 074°01'0 0.0
2017-Oct-07 22:30N 40°46' W 074°01'0 0.0
2017-Oct-07 22:00N 40°46' W 074°01'1 1.5
2017-Oct-07 21:30N 40°45' W 074°01'0 0.0
2017-Oct-06 01:52N 40°45' W 074°01'1 2.2
2017-Oct-06 01:30N 40°44' W 074°01'3 6.0
2017-Oct-06 01:00N 40°41' W 074°02'3 5.1
2017-Oct-06 00:30N 40°42' W 073°60'1 2.7
2017-Oct-06 00:00N 40°43' W 074°01'3 6.4
2017-Oct-05 23:30N 40°46' W 074°00'1 1.9
2017-Oct-05 23:00N 40°45' W 074°01'0 0.0
2017-Oct-05 22:30N 40°45' W 074°01'0 0.0
2017-Oct-05 22:00N 40°45' W 074°01'  

Dump ship's entire track history